• Join FlightAware (Why Join?)
  • Login
  • US Flag 
11:28AM EDT


 

Airport Tracker/Info


-or-


 

Live Flight TrackerFlight Track Log ✈ SWA286 ✈ 21-Apr-2013 ✈ KBNA - KDEN

Flight Track Log - Related Links

Times and Time Zones

All times are in EDT time to prevent confusion due to time zone crossing. See the SWA286 flight status page for this flight to view local times or setup timezone preferences in your user account.

Time Position Orientation Groundspeed Altitude Reporting Facility
EDT Latitude Longitude Course Direction KTS MPH feet Rate Location/Type
04:39PM 36.1500 -86.6667 360° North 159 183 1,800  Level Nashville TRACON
04:40PM 36.1833 -86.6667 360° North 196 226 3,300 2,280 Climbing Nashville TRACON
04:41PM 36.2167 -86.7333 302° West 250 288 6,000 3,060 Climbing Nashville TRACON
04:42PM 36.2167 -86.8333 270° West 289 333 9,500 3,420 Climbing Nashville TRACON
04:43PM 36.2294 -86.9067 282° West 315 362 12,000 3,600 Climbing Memphis Center
04:44PM 36.2425 -87.0039 279° West 308 354 15,900 2,880 Climbing Memphis Center
04:45PM 36.2578 -87.1089 280° West 302 348 17,800 1,920 Climbing Memphis Center
04:46PM 36.2714 -87.2344 278° West 352 405 19,800 2,100 Climbing Memphis Center
04:47PM 36.2908 -87.3469 282° West 374 430 22,000 2,160 Climbing Memphis Center
04:48PM 36.3128 -87.4800 282° West 390 449 24,200 2,100 Climbing Memphis Center
04:49PM 36.3614 -87.6072 295° West 396 456 26,300 1,980 Climbing Memphis Center
04:50PM 36.4183 -87.7317 300° West 415 478 28,200 1,740 Climbing Memphis Center
04:51PM 36.4753 -87.8589 299° West 425 489 29,800 1,680 Climbing Memphis Center
04:52PM 36.5361 -87.9914 300° West 431 496 31,600 1,740 Climbing Memphis Center
04:53PM 36.6014 -88.1342 300° West 431 496 33,300 1,800 Climbing Memphis Center
04:54PM 36.6517 -88.2697 295° West 426 490 35,200 1,320 Climbing Memphis Center
04:55PM 36.6747 -88.4089 282° West 414 476 36,000 420 Climbing Memphis Center
04:56PM 36.6997 -88.5456 283° West 407 468 36,100 540 Climbing Memphis Center
04:57PM 36.7206 -88.6872 280° West 413 475 37,100 900 Climbing Memphis Center
04:58PM 36.7411 -88.8292 280° West 413 475 38,000 420 Climbing Memphis Center
04:59PM 36.7617 -88.9689 280° West 413 475 38,000  Level Memphis Center
05:00PM 36.7881 -89.1108 283° West 413 475 38,000  Level Memphis Center
05:01PM 36.8081 -89.2531 280° West 413 475 38,000  Level Memphis Center
05:02PM 36.8281 -89.3928 280° West 413 475 38,000  Level Memphis Center
05:03PM 36.8456 -89.5194 280° West 413 475 38,000  Level Memphis Center
05:04PM 36.8694 -89.6592 282° West 413 475 38,000  Level Memphis Center
05:05PM 36.8869 -89.7967 279° West 413 475 38,000  Level Memphis Center
05:06PM 36.9083 -89.9367 281° West 413 475 38,000  Level Memphis Center
05:07PM 36.9275 -90.0767 280° West 413 475 38,000  Level Memphis Center
05:08PM 36.9486 -90.2167 281° West 413 475 38,000  Level Memphis Center
05:09PM 36.9694 -90.3594 280° West 413 475 38,000  Level Memphis Center
05:10PM 36.9881 -90.4997 279° West 413 475 38,000  Level Memphis Center
05:11PM 37.0189 -90.7239 280° West 411 473 38,000  Level Kansas City Center
05:12PM 37.0444 -90.8917 281° West 409 471 38,000  Level Kansas City Center
05:13PM 37.0619 -91.0328 279° West 411 473 38,000  Level Kansas City Center
05:14PM 37.0806 -91.1603 280° West 405 466 38,000  Level Kansas City Center
05:16PM 37.0975 -91.2983 279° West 402 463 38,000  Level Kansas City Center
05:17PM 37.1200 -91.4619 280° West 398 458 38,000  Level Kansas City Center
05:18PM 37.1381 -91.5994 279° West 398 458 38,000  Level Kansas City Center
05:19PM 37.1561 -91.7358 279° West 397 457 38,000  Level Kansas City Center
05:20PM 37.1742 -91.8744 279° West 399 459 38,000  Level Kansas City Center
05:21PM 37.1922 -92.0125 279° West 399 459 38,000  Level Kansas City Center
05:22PM 37.2108 -92.1508 280° West 399 459 38,000  Level Kansas City Center
05:23PM 37.2275 -92.2894 279° West 400 460 38,000  Level Kansas City Center
05:24PM 37.2458 -92.4294 279° West 402 463 38,000  Level Kansas City Center
05:25PM 37.2672 -92.5947 279° West 400 460 38,000  Level Kansas City Center
05:26PM 37.2842 -92.7344 279° West 400 460 38,000  Level Kansas City Center
05:27PM 37.3008 -92.8747 279° West 402 463 38,000  Level Kansas City Center
05:28PM 37.3175 -93.0147 279° West 403 464 38,000  Level Kansas City Center
05:29PM 37.3336 -93.1508 279° West 397 457 38,000  Level Kansas City Center
05:30PM 37.3503 -93.2875 279° West 394 453 38,000  Level Kansas City Center
05:31PM 37.3786 -93.4181 285° West 391 450 38,000  Level Kansas City Center
05:32PM 37.4161 -93.5456 290° West 387 445 38,000  Level Kansas City Center
05:33PM 37.4594 -93.6994 290° West 388 447 38,000  Level Kansas City Center
05:34PM 37.4944 -93.8278 289° West 387 445 38,000  Level Kansas City Center
05:35PM 37.5303 -93.9575 289° West 388 447 38,000  Level Kansas City Center
05:36PM 37.5650 -94.0856 289° West 387 445 38,000  Level Kansas City Center
05:37PM 37.5994 -94.2103 289° West 387 445 38,000  Level Kansas City Center
05:38PM 37.6342 -94.3392 289° West 388 447 38,000  Level Kansas City Center
05:39PM 37.6761 -94.4950 289° West 391 450 38,000  Level Kansas City Center
05:40PM 37.7083 -94.6119 289° West 392 451 38,000  Level Kansas City Center
05:41PM 37.7464 -94.7567 288° West 389 448 38,000  Level Kansas City Center
05:42PM 37.7781 -94.8806 288° West 388 447 38,000  Level Kansas City Center
05:43PM 37.8164 -95.0228 289° West 384 442 38,000  Level Kansas City Center
05:44PM 37.8461 -95.1367 288° West 382 440 38,000  Level Kansas City Center
05:45PM 37.8864 -95.2894 289° West 382 440 38,000  Level Kansas City Center
05:47PM 37.9197 -95.4133 289° West 378 435 38,000  Level Kansas City Center
05:48PM 37.9553 -95.5494 288° West 381 438 38,000  Level Kansas City Center
05:49PM 37.9867 -95.6744 288° West 385 443 38,000  Level Kansas City Center
05:50PM 38.0186 -95.7961 288° West 382 440 38,000  Level Kansas City Center
05:51PM 38.0553 -95.9386 288° West 379 436 38,000  Level Kansas City Center
05:52PM 38.0858 -96.0606 288° West 378 435 38,000  Level Kansas City Center
05:53PM 38.1197 -96.1997 287° West 385 443 38,000  Level Kansas City Center
05:54PM 38.1522 -96.3269 288° West 382 440 38,000  Level Kansas City Center
05:55PM 38.1847 -96.4558 288° West 383 441 38,000  Level Kansas City Center
05:56PM 38.2164 -96.5842 287° West 383 441 38,000  Level Kansas City Center
05:57PM 38.2550 -96.7400 288° West 384 442 38,000  Level Kansas City Center
05:58PM 38.2878 -96.8706 288° West 388 447 38,000  Level Kansas City Center
05:59PM 38.3197 -97.0006 287° West 386 444 38,000  Level Kansas City Center
06:00PM 38.3508 -97.1294 287° West 384 442 38,000  Level Kansas City Center
06:01PM 38.3817 -97.2597 287° West 385 443 38,000  Level Kansas City Center
06:02PM 38.4131 -97.3883 287° West 383 441 38,000  Level Kansas City Center
06:03PM 38.4500 -97.5422 287° West 381 438 38,000  Level Kansas City Center
06:04PM 38.4803 -97.6714 287° West 382 440 38,000  Level Kansas City Center
06:05PM 38.5108 -97.8006 287° West 384 442 38,000  Level Kansas City Center
06:06PM 38.5408 -97.9289 287° West 381 438 38,000  Level Kansas City Center
06:07PM 38.5717 -98.0597 287° West 385 443 38,000  Level Kansas City Center
06:08PM 38.6081 -98.2164 287° West 385 443 38,000  Level Kansas City Center
06:09PM 38.6394 -98.3497 287° West 392 451 38,000  Level Kansas City Center
06:10PM 38.6697 -98.4831 286° West 392 451 38,000  Level Kansas City Center
06:11PM 38.7011 -98.6167 287° West 393 452 38,000  Level Kansas City Center
06:12PM 38.7308 -98.7506 286° West 393 452 38,000  Level Kansas City Center
06:13PM 38.7619 -98.8844 287° West 393 452 38,000  Level Kansas City Center
06:14PM 38.7978 -99.0456 286° West 391 450 38,000  Level Kansas City Center
06:15PM 38.8275 -99.1792 286° West 392 451 38,000  Level Kansas City Center
06:17PM 38.8506 -99.3164 282° West 394 453 38,000  Level Kansas City Center
06:17PM 38.8492 -99.4317 269° West 391 450 38,000  Level Denver Center
06:18PM 38.8497 -99.5653 270° West 391 450 38,000  Level Denver Center
06:19PM 38.8517 -99.6975 271° West 390 449 38,000  Level Denver Center
06:20PM 38.8531 -99.8531 271° West 392 451 38,000  Level Denver Center
06:21PM 38.8533 -99.9844 270° West 388 447 38,000  Level Denver Center
06:22PM 38.8544 -100.1381 271° West 388 447 38,000  Level Denver Center
06:23PM 38.8544 -100.2664 270° West 381 438 38,000 -1,260 Level Denver Center
06:24PM 38.8550 -100.4200 270° West 384 442 35,500 -1,980 Descending Denver Center
06:25PM 38.8550 -100.5536 270° West 390 449 34,000 -720 Descending Denver Center
06:27PM 38.8550 -100.7053 270° West 385 443 34,000 -540 Level Denver Center
06:28PM 38.8553 -100.8839 270° West 391 450 32,900 -1,020 Descending Denver Center
06:29PM 38.8542 -101.0181 269° West 394 453 32,000 -480 Descending Denver Center
06:30PM 38.8542 -101.1714 270° West 388 447 32,000  Level Denver Center
06:31PM 38.8536 -101.3044 270° West 391 450 32,000  Level Denver Center
06:32PM 38.8519 -101.4606 269° West 391 450 32,000  Level Denver Center
06:33PM 38.8511 -101.5939 270° West 392 451 32,000  Level Denver Center
06:34PM 38.8489 -101.7267 269° West 391 450 32,000  Level Denver Center
06:35PM 38.8486 -101.8817 270° West 390 449 32,000  Level Denver Center
06:36PM 38.8461 -102.0144 269° West 391 450 32,000  Level Denver Center
06:37PM 38.8436 -102.1725 269° West 396 456 32,000  Level Denver Center
06:38PM 38.8728 -102.2975 287° West 390 449 32,000  Level Denver Center
06:39PM 38.9194 -102.4386 293° West 385 443 32,000  Level Denver Center
06:40PM 38.9717 -102.5992 293° West 383 441 32,000 -180 Level Denver Center
06:41PM 39.0111 -102.7189 293° West 382 440 31,700 -660 Descending Denver Center
06:42PM 39.0508 -102.8444 292° West 381 438 30,700 -1,020 Descending Denver Center
06:43PM 39.0911 -102.9717 292° West 380 437 29,600 -1,020 Descending Denver Center
06:44PM 39.1311 -103.0953 293° West 374 430 28,600 -1,080 Descending Denver Center
06:45PM 39.1408 -103.2519 275° West 369 425 27,400 -1,080 Descending Denver Center
06:47PM 39.1553 -103.3822 278° West 366 421 26,400 -1,380 Descending Denver Center
06:48PM 39.1742 -103.5072 281° West 355 409 24,600 -1,800 Descending Denver Center
06:49PM 39.2183 -103.6164 298° West 348 400 22,800 -1,920 Descending Denver Center
06:50PM 39.2750 -103.7164 306° West 345 397 20,700 -2,100 Descending Denver Center
06:51PM 39.3317 -103.8208 305° West 349 402 18,500 -1,740 Descending Denver Center
06:52PM 39.3917 -103.9300 305° West 349 402 17,200 -1,380 Descending Denver Center
06:53PM 39.4008 -104.0403 276° West 311 358 15,700 -1,560 Descending Denver Center
06:54PM 39.4064 -104.1556 274° West 300 345 14,100 -1,320 Descending Denver Center
06:55PM 39.4106 -104.2600 273° West 290 334 13,100 -900 Descending Denver Center
06:56PM 39.4219 -104.3556 279° West 272 313 12,300 -1,020 Descending Denver Center
06:57PM 39.4658 -104.4419 303° West 268 308 11,000 -1,080 Descending Denver Center
06:58PM 39.5033 -104.5208 302° West 260 299 10,100 -480 Descending Denver Center
06:59PM 39.5686 -104.5658 332° Northwest 262 302 10,100 -60 Level Denver Center
07:00PM 39.6317 -104.5931 342° North 244 281 10,000 -540 Descending Denver Center
07:01PM 39.6839 -104.6158 341° North 209 241 9,100 -1,140 Descending Denver Center
07:02PM 39.7381 -104.6381 342° North 194 223 7,700 -1,380 Descending Denver Center
07:03PM 39.7853 -104.6425 356° North 173 199 6,300 -1,080 Descending Denver Center
07:04PM 39.8289 -104.6422 360° North 148 170 5,500 -780 Descending Denver Center
07:06PM 39.8500 -104.6667 North  Level FlightAware Approximate
07:13PM 39.8617 -104.6732 North  Level Estimated
07:14PM 39.8617 -104.6732 North  Level Estimated
07:15PM 39.8617 -104.6732 North  Level Estimated